sensor_id;sensor_type;location;lat;lon;timestamp;pressure;altitude;pressure_sealevel;temperature;humidity
41062;BME280;26812;42.662;23.352;2023-03-03T00:01:10;94966.28;;;6.51;67.51
41062;BME280;26812;42.662;23.352;2023-03-03T00:03:35;94980.81;;;6.64;66.77
41062;BME280;26812;42.662;23.352;2023-03-03T00:06:02;94967.56;;;6.35;67.54
41062;BME280;26812;42.662;23.352;2023-03-03T00:08:28;94974.16;;;6.43;67.05
41062;BME280;26812;42.662;23.352;2023-03-03T00:10:53;94966.91;;;6.81;65.60
41062;BME280;26812;42.662;23.352;2023-03-03T00:13:24;94968.25;;;6.97;65.65
41062;BME280;26812;42.662;23.352;2023-03-03T00:15:50;94933.38;;;6.51;66.30
41062;BME280;26812;42.662;23.352;2023-03-03T00:20:48;94959.75;;;6.58;66.59
41062;BME280;26812;42.662;23.352;2023-03-03T00:25:49;94965.41;;;6.56;66.91
41062;BME280;26812;42.662;23.352;2023-03-03T00:28:43;94962.22;;;6.54;67.19
41062;BME280;26812;42.662;23.352;2023-03-03T00:31:14;94961.34;;;6.59;67.20
41062;BME280;26812;42.662;23.352;2023-03-03T00:34:10;94958.16;;;6.19;67.95
41062;BME280;26812;42.662;23.352;2023-03-03T00:36:45;94940.94;;;6.25;67.51
41062;BME280;26812;42.662;23.352;2023-03-03T00:41:50;94947.63;;;6.04;69.17
41062;BME280;26812;42.662;23.352;2023-03-03T00:49:39;94930.94;;;6.68;66.82
41062;BME280;26812;42.662;23.352;2023-03-03T00:52:16;94933.53;;;6.92;66.29
41062;BME280;26812;42.662;23.352;2023-03-03T00:54:42;94936.50;;;6.91;66.14
41062;BME280;26812;42.662;23.352;2023-03-03T00:57:07;94917.75;;;6.20;68.50
41062;BME280;26812;42.662;23.352;2023-03-03T00:59:33;94903.34;;;6.54;66.90
41062;BME280;26812;42.662;23.352;2023-03-03T01:01:58;94914.78;;;6.73;66.52
41062;BME280;26812;42.662;23.352;2023-03-03T01:04:24;94900.25;;;6.79;66.03
41062;BME280;26812;42.662;23.352;2023-03-03T01:06:50;94867.09;;;6.05;67.22
41062;BME280;26812;42.662;23.352;2023-03-03T01:09:15;94904.22;;;6.49;67.12
41062;BME280;26812;42.662;23.352;2023-03-03T01:11:40;94909.31;;;6.97;65.55
41062;BME280;26812;42.662;23.352;2023-03-03T01:14:06;94904.16;;;7.01;65.38
41062;BME280;26812;42.662;23.352;2023-03-03T01:16:33;94894.81;;;6.84;65.35
41062;BME280;26812;42.662;23.352;2023-03-03T01:18:58;94899.78;;;6.59;66.38
41062;BME280;26812;42.662;23.352;2023-03-03T01:21:24;94889.16;;;6.86;65.63
41062;BME280;26812;42.662;23.352;2023-03-03T01:23:49;94865.88;;;6.35;66.20
41062;BME280;26812;42.662;23.352;2023-03-03T01:26:15;94885.94;;;6.19;68.08
41062;BME280;26812;42.662;23.352;2023-03-03T01:28:40;94896.41;;;6.53;67.11
41062;BME280;26812;42.662;23.352;2023-03-03T01:31:06;94888.97;;;6.12;68.31
41062;BME280;26812;42.662;23.352;2023-03-03T01:33:33;94898.16;;;6.76;67.28
41062;BME280;26812;42.662;23.352;2023-03-03T01:35:59;94894.97;;;6.23;67.83
41062;BME280;26812;42.662;23.352;2023-03-03T01:38:24;94884.69;;;6.30;67.96
41062;BME280;26812;42.662;23.352;2023-03-03T01:40:55;94860.34;;;6.13;67.56
41062;BME280;26812;42.662;23.352;2023-03-03T01:43:21;94884.91;;;6.34;68.02
41062;BME280;26812;42.662;23.352;2023-03-03T01:51:03;94896.88;;;7.06;66.35
41062;BME280;26812;42.662;23.352;2023-03-03T01:53:41;94893.00;;;7.12;65.37
41062;BME280;26812;42.662;23.352;2023-03-03T01:56:08;94895.94;;;6.65;66.26
41062;BME280;26812;42.662;23.352;2023-03-03T01:58:36;94887.50;;;6.90;65.88
41062;BME280;26812;42.662;23.352;2023-03-03T02:01:06;94893.94;;;6.57;67.26
41062;BME280;26812;42.662;23.352;2023-03-03T02:03:42;94888.00;;;6.60;67.45
41062;BME280;26812;42.662;23.352;2023-03-03T02:06:14;94890.06;;;6.63;66.81
41062;BME280;26812;42.662;23.352;2023-03-03T02:11:20;94898.91;;;6.63;67.92
41062;BME280;26812;42.662;23.352;2023-03-03T02:13:45;94887.09;;;6.83;66.91
41062;BME280;26812;42.662;23.352;2023-03-03T02:16:11;94880.22;;;6.44;67.64
41062;BME280;26812;42.662;23.352;2023-03-03T02:18:37;94876.19;;;6.42;66.53
41062;BME280;26812;42.662;23.352;2023-03-03T02:21:04;94895.94;;;6.65;66.31
41062;BME280;26812;42.662;23.352;2023-03-03T02:28:43;94888.78;;;6.04;67.92
41062;BME280;26812;42.662;23.352;2023-03-03T02:31:15;94876.06;;;5.96;68.61
41062;BME280;26812;42.662;23.352;2023-03-03T02:33:43;94884.81;;;6.01;69.16
41062;BME280;26812;42.662;23.352;2023-03-03T02:36:29;94892.78;;;6.25;69.24
41062;BME280;26812;42.662;23.352;2023-03-03T02:41:32;94893.78;;;6.29;68.66
41062;BME280;26812;42.662;23.352;2023-03-03T02:44:16;94876.44;;;5.65;70.68
41062;BME280;26812;42.662;23.352;2023-03-03T02:46:47;94863.44;;;5.77;69.90
41062;BME280;26812;42.662;23.352;2023-03-03T02:49:15;94873.63;;;5.56;70.18
41062;BME280;26812;42.662;23.352;2023-03-03T02:51:42;94871.59;;;5.91;70.14
41062;BME280;26812;42.662;23.352;2023-03-03T02:54:08;94885.81;;;6.62;68.47
41062;BME280;26812;42.662;23.352;2023-03-03T02:56:34;94887.25;;;7.05;65.56
41062;BME280;26812;42.662;23.352;2023-03-03T02:59:01;94877.75;;;6.48;66.96
41062;BME280;26812;42.662;23.352;2023-03-03T03:01:26;94887.06;;;6.32;67.61
41062;BME280;26812;42.662;23.352;2023-03-03T03:03:52;94882.41;;;6.56;67.26
41062;BME280;26812;42.662;23.352;2023-03-03T03:06:17;94878.88;;;6.61;67.11
41062;BME280;26812;42.662;23.352;2023-03-03T03:08:43;94872.59;;;6.51;67.23
41062;BME280;26812;42.662;23.352;2023-03-03T03:11:08;94865.16;;;6.30;68.17
41062;BME280;26812;42.662;23.352;2023-03-03T03:13:34;94880.84;;;6.55;68.15
41062;BME280;26812;42.662;23.352;2023-03-03T03:15:59;94876.44;;;6.45;67.44
41062;BME280;26812;42.662;23.352;2023-03-03T03:18:26;94879.94;;;6.92;66.88
41062;BME280;26812;42.662;23.352;2023-03-03T03:20:52;94881.72;;;6.83;66.31
41062;BME280;26812;42.662;23.352;2023-03-03T03:23:17;94874.34;;;6.23;68.21
41062;BME280;26812;42.662;23.352;2023-03-03T03:25:43;94869.66;;;6.67;67.62
41062;BME280;26812;42.662;23.352;2023-03-03T03:28:12;94880.22;;;6.77;67.45
41062;BME280;26812;42.662;23.352;2023-03-03T03:30:39;94866.25;;;6.29;68.52
41062;BME280;26812;42.662;23.352;2023-03-03T03:33:05;94869.13;;;6.51;67.11
41062;BME280;26812;42.662;23.352;2023-03-03T03:35:32;94857.50;;;6.04;67.68
41062;BME280;26812;42.662;23.352;2023-03-03T03:37:57;94855.13;;;6.21;67.96
41062;BME280;26812;42.662;23.352;2023-03-03T03:40:23;94867.84;;;5.92;70.30
41062;BME280;26812;42.662;23.352;2023-03-03T03:42:51;94860.88;;;6.47;68.35
41062;BME280;26812;42.662;23.352;2023-03-03T03:45:16;94863.34;;;6.44;68.30
41062;BME280;26812;42.662;23.352;2023-03-03T03:47:42;94848.53;;;6.33;68.34
41062;BME280;26812;42.662;23.352;2023-03-03T03:50:08;94861.06;;;6.18;69.68
41062;BME280;26812;42.662;23.352;2023-03-03T03:52:34;94864.38;;;6.94;67.02
41062;BME280;26812;42.662;23.352;2023-03-03T03:54:59;94864.06;;;6.82;67.78
41062;BME280;26812;42.662;23.352;2023-03-03T03:57:25;94851.84;;;6.43;68.57
41062;BME280;26812;42.662;23.352;2023-03-03T03:59:50;94848.53;;;5.52;70.85
41062;BME280;26812;42.662;23.352;2023-03-03T04:02:16;94845.13;;;6.46;69.59
41062;BME280;26812;42.662;23.352;2023-03-03T04:04:41;94836.03;;;6.61;68.28
41062;BME280;26812;42.662;23.352;2023-03-03T04:07:07;94840.56;;;6.79;67.62
41062;BME280;26812;42.662;23.352;2023-03-03T04:09:33;94857.91;;;6.49;69.24
41062;BME280;26812;42.662;23.352;2023-03-03T04:11:59;94853.34;;;6.49;68.40
41062;BME280;26812;42.662;23.352;2023-03-03T04:14:24;94837.22;;;5.79;71.11
41062;BME280;26812;42.662;23.352;2023-03-03T04:16:49;94838.41;;;6.11;70.70
41062;BME280;26812;42.662;23.352;2023-03-03T04:19:15;94841.72;;;6.40;70.46
41062;BME280;26812;42.662;23.352;2023-03-03T04:21:40;94841.44;;;6.23;69.98
41062;BME280;26812;42.662;23.352;2023-03-03T04:24:06;94838.91;;;6.32;70.51
41062;BME280;26812;42.662;23.352;2023-03-03T04:26:31;94853.97;;;5.90;71.46
41062;BME280;26812;42.662;23.352;2023-03-03T04:28:57;94842.72;;;5.69;72.99
41062;BME280;26812;42.662;23.352;2023-03-03T04:31:23;94840.59;;;5.66;73.01
41062;BME280;26812;42.662;23.352;2023-03-03T04:33:50;94837.28;;;5.32;74.48
41062;BME280;26812;42.662;23.352;2023-03-03T04:36:16;94836.13;;;5.80;73.76
41062;BME280;26812;42.662;23.352;2023-03-03T04:38:41;94839.81;;;5.89;73.63
41062;BME280;26812;42.662;23.352;2023-03-03T04:41:07;94820.03;;;5.67;73.39
41062;BME280;26812;42.662;23.352;2023-03-03T04:43:32;94825.03;;;5.07;74.99
41062;BME280;26812;42.662;23.352;2023-03-03T04:45:58;94826.00;;;5.77;73.92
41062;BME280;26812;42.662;23.352;2023-03-03T04:48:23;94832.72;;;5.56;74.62
41062;BME280;26812;42.662;23.352;2023-03-03T04:50:48;94833.75;;;5.60;74.49
41062;BME280;26812;42.662;23.352;2023-03-03T04:53:14;94817.78;;;5.55;74.29
41062;BME280;26812;42.662;23.352;2023-03-03T04:55:39;94835.50;;;5.46;74.51
41062;BME280;26812;42.662;23.352;2023-03-03T04:58:05;94832.72;;;5.56;75.10
41062;BME280;26812;42.662;23.352;2023-03-03T05:00:31;94856.22;;;5.59;74.90
41062;BME280;26812;42.662;23.352;2023-03-03T05:02:57;94816.56;;;5.85;73.56
41062;BME280;26812;42.662;23.352;2023-03-03T05:05:22;94837.34;;;5.69;73.94
41062;BME280;26812;42.662;23.352;2023-03-03T05:07:48;94853.03;;;5.76;74.81
41062;BME280;26812;42.662;23.352;2023-03-03T05:10:13;94855.47;;;5.96;73.61
41062;BME280;26812;42.662;23.352;2023-03-03T05:12:39;94840.31;;;5.91;72.95
41062;BME280;26812;42.662;23.352;2023-03-03T05:15:05;94839.94;;;5.98;73.05
41062;BME280;26812;42.662;23.352;2023-03-03T05:17:30;94841.22;;;5.82;73.92
41062;BME280;26812;42.662;23.352;2023-03-03T05:19:56;94859.69;;;5.78;74.55
41062;BME280;26812;42.662;23.352;2023-03-03T05:22:22;94836.84;;;5.91;73.42
41062;BME280;26812;42.662;23.352;2023-03-03T05:24:48;94851.31;;;5.66;74.77
41062;BME280;26812;42.662;23.352;2023-03-03T05:27:14;94856.41;;;6.75;71.14
41062;BME280;26812;42.662;23.352;2023-03-03T05:29:40;94862.13;;;6.36;71.75
41062;BME280;26812;42.662;23.352;2023-03-03T05:32:05;94854.25;;;6.07;72.56
41062;BME280;26812;42.662;23.352;2023-03-03T05:34:31;94858.59;;;5.79;73.92
41062;BME280;26812;42.662;23.352;2023-03-03T05:36:57;94858.81;;;5.64;74.51
41062;BME280;26812;42.662;23.352;2023-03-03T05:39:22;94863.38;;;6.76;70.11
41062;BME280;26812;42.662;23.352;2023-03-03T05:41:47;94847.75;;;6.65;70.35
41062;BME280;26812;42.662;23.352;2023-03-03T05:44:13;94857.47;;;6.42;71.13
41062;BME280;26812;42.662;23.352;2023-03-03T05:46:38;94863.09;;;6.59;70.29
41062;BME280;26812;42.662;23.352;2023-03-03T05:49:04;94871.84;;;6.13;72.25
41062;BME280;26812;42.662;23.352;2023-03-03T05:51:29;94878.69;;;6.71;70.94
41062;BME280;26812;42.662;23.352;2023-03-03T05:53:55;94861.09;;;6.83;69.93
41062;BME280;26812;42.662;23.352;2023-03-03T05:56:20;94834.66;;;6.63;69.84
41062;BME280;26812;42.662;23.352;2023-03-03T05:58:46;94864.41;;;6.62;70.26
41062;BME280;26812;42.662;23.352;2023-03-03T06:01:11;94873.97;;;6.30;71.53
41062;BME280;26812;42.662;23.352;2023-03-03T06:03:37;94873.91;;;6.54;71.29
41062;BME280;26812;42.662;23.352;2023-03-03T06:06:03;94866.13;;;6.20;72.11
41062;BME280;26812;42.662;23.352;2023-03-03T06:08:28;94854.44;;;6.48;71.81
41062;BME280;26812;42.662;23.352;2023-03-03T06:10:55;94862.47;;;6.81;68.11
41062;BME280;26812;42.662;23.352;2023-03-03T06:13:20;94869.78;;;7.08;68.71
41062;BME280;26812;42.662;23.352;2023-03-03T06:15:46;94872.59;;;6.51;70.09
41062;BME280;26812;42.662;23.352;2023-03-03T06:18:11;94876.97;;;6.61;69.75
41062;BME280;26812;42.662;23.352;2023-03-03T06:20:37;94875.81;;;6.67;70.08
41062;BME280;26812;42.662;23.352;2023-03-03T06:23:03;94876.00;;;6.71;70.76
41062;BME280;26812;42.662;23.352;2023-03-03T06:25:28;94888.31;;;6.72;70.79
41062;BME280;26812;42.662;23.352;2023-03-03T06:27:54;94879.53;;;6.85;70.09
41062;BME280;26812;42.662;23.352;2023-03-03T06:30:19;94888.28;;;6.58;70.71
41062;BME280;26812;42.662;23.352;2023-03-03T06:32:45;94883.88;;;6.30;72.84
41062;BME280;26812;42.662;23.352;2023-03-03T06:35:11;94885.41;;;6.36;72.70
41062;BME280;26812;42.662;23.352;2023-03-03T06:37:36;94878.81;;;6.47;71.50
41062;BME280;26812;42.662;23.352;2023-03-03T06:40:03;94894.13;;;6.41;71.60
41062;BME280;26812;42.662;23.352;2023-03-03T06:42:29;94885.34;;;6.73;70.34
41062;BME280;26812;42.662;23.352;2023-03-03T06:44:55;94896.00;;;6.78;69.98
41062;BME280;26812;42.662;23.352;2023-03-03T06:47:20;94895.06;;;6.69;70.35
41062;BME280;26812;42.662;23.352;2023-03-03T06:49:46;94884.41;;;6.32;72.02
41062;BME280;26812;42.662;23.352;2023-03-03T06:52:14;94838.69;;;6.79;68.83
41062;BME280;26812;42.662;23.352;2023-03-03T06:54:42;94903.22;;;6.78;69.29
41062;BME280;26812;42.662;23.352;2023-03-03T06:57:37;94838.94;;;5.94;71.04
41062;BME280;26812;42.662;23.352;2023-03-03T07:00:26;94889.66;;;6.56;71.21
41062;BME280;26812;42.662;23.352;2023-03-03T07:02:57;94890.06;;;7.41;69.10
41062;BME280;26812;42.662;23.352;2023-03-03T07:05:25;94893.63;;;6.58;72.26
41062;BME280;26812;42.662;23.352;2023-03-03T07:07:51;94901.28;;;7.57;67.79
41062;BME280;26812;42.662;23.352;2023-03-03T07:10:28;94873.13;;;6.67;69.88
41062;BME280;26812;42.662;23.352;2023-03-03T07:12:56;94897.44;;;6.71;71.43
41062;BME280;26812;42.662;23.352;2023-03-03T07:15:29;94870.97;;;7.15;69.84
41062;BME280;26812;42.662;23.352;2023-03-03T07:17:58;94881.94;;;6.35;72.65
41062;BME280;26812;42.662;23.352;2023-03-03T07:20:31;94903.47;;;6.63;72.53
41062;BME280;26812;42.662;23.352;2023-03-03T07:22:57;94870.13;;;6.36;72.60
41062;BME280;26812;42.662;23.352;2023-03-03T07:25:31;94883.97;;;6.43;73.28
41062;BME280;26812;42.662;23.352;2023-03-03T07:28:23;94900.44;;;6.50;73.21
41062;BME280;26812;42.662;23.352;2023-03-03T07:30:49;94886.34;;;6.45;73.64
41062;BME280;26812;42.662;23.352;2023-03-03T07:33:27;94859.41;;;6.74;71.49
41062;BME280;26812;42.662;23.352;2023-03-03T07:35:55;94871.88;;;6.46;72.42
41062;BME280;26812;42.662;23.352;2023-03-03T07:38:29;94876.44;;;7.10;69.40
41062;BME280;26812;42.662;23.352;2023-03-03T07:40:58;94886.31;;;6.64;70.84
41062;BME280;26812;42.662;23.352;2023-03-03T07:43:33;94899.56;;;6.55;72.23
41062;BME280;26812;42.662;23.352;2023-03-03T07:46:28;94891.56;;;6.69;70.92
41062;BME280;26812;42.662;23.352;2023-03-03T07:48:55;94872.25;;;6.72;71.01
41062;BME280;26812;42.662;23.352;2023-03-03T07:51:35;94871.72;;;6.56;70.92
41062;BME280;26812;42.662;23.352;2023-03-03T07:54:35;94888.47;;;6.80;70.76
41062;BME280;26812;42.662;23.352;2023-03-03T07:59:50;94876.09;;;6.98;70.29
41062;BME280;26812;42.662;23.352;2023-03-03T08:04:46;94877.72;;;7.27;69.91
41062;BME280;26812;42.662;23.352;2023-03-03T08:07:18;94871.41;;;6.90;69.85
41062;BME280;26812;42.662;23.352;2023-03-03T08:10:00;94870.97;;;6.69;71.21
41062;BME280;26812;42.662;23.352;2023-03-03T08:12:37;94873.84;;;7.05;69.81
41062;BME280;26812;42.662;23.352;2023-03-03T08:15:15;94869.38;;;7.14;69.35
41062;BME280;26812;42.662;23.352;2023-03-03T08:17:42;94858.28;;;7.07;68.90
41062;BME280;26812;42.662;23.352;2023-03-03T08:20:52;94882.72;;;7.74;66.70
41062;BME280;26812;42.662;23.352;2023-03-03T08:23:19;94867.72;;;7.60;67.01
41062;BME280;26812;42.662;23.352;2023-03-03T08:25:46;94869.03;;;7.35;67.97
41062;BME280;26812;42.662;23.352;2023-03-03T08:28:12;94873.66;;;7.15;69.79
41062;BME280;26812;42.662;23.352;2023-03-03T08:30:38;94865.91;;;7.28;69.32
41062;BME280;26812;42.662;23.352;2023-03-03T08:33:04;94861.47;;;6.77;69.83
41062;BME280;26812;42.662;23.352;2023-03-03T08:35:29;94832.53;;;6.46;71.06
41062;BME280;26812;42.662;23.352;2023-03-03T08:37:55;94851.44;;;7.70;68.17
41062;BME280;26812;42.662;23.352;2023-03-03T08:40:20;94840.31;;;7.08;68.43
41062;BME280;26812;42.662;23.352;2023-03-03T08:42:45;94826.91;;;7.08;69.04
41062;BME280;26812;42.662;23.352;2023-03-03T08:45:11;94823.72;;;6.92;70.57
41062;BME280;26812;42.662;23.352;2023-03-03T08:47:37;94839.06;;;6.87;70.10
41062;BME280;26812;42.662;23.352;2023-03-03T08:50:03;94850.31;;;7.02;70.33
41062;BME280;26812;42.662;23.352;2023-03-03T08:52:29;94831.22;;;6.76;70.93
41062;BME280;26812;42.662;23.352;2023-03-03T08:54:55;94863.53;;;7.12;70.52
41062;BME280;26812;42.662;23.352;2023-03-03T08:57:20;94879.34;;;6.81;70.46
41062;BME280;26812;42.662;23.352;2023-03-03T08:59:45;94855.25;;;6.95;71.91
41062;BME280;26812;42.662;23.352;2023-03-03T09:02:12;94866.78;;;6.63;72.41
41062;BME280;26812;42.662;23.352;2023-03-03T09:04:37;94869.53;;;6.58;74.01
41062;BME280;26812;42.662;23.352;2023-03-03T09:07:03;94865.06;;;6.86;72.21
41062;BME280;26812;42.662;23.352;2023-03-03T09:09:28;94860.06;;;7.26;70.45
41062;BME280;26812;42.662;23.352;2023-03-03T09:11:57;94848.34;;;7.08;70.35
41062;BME280;26812;42.662;23.352;2023-03-03T09:14:27;94851.13;;;7.30;70.82
41062;BME280;26812;42.662;23.352;2023-03-03T09:16:54;94864.25;;;7.59;67.96
41062;BME280;26812;42.662;23.352;2023-03-03T09:19:30;94866.34;;;7.48;67.69
41062;BME280;26812;42.662;23.352;2023-03-03T09:22:23;94866.03;;;7.50;67.69
41062;BME280;26812;42.662;23.352;2023-03-03T09:24:52;94854.91;;;7.43;68.28
41062;BME280;26812;42.662;23.352;2023-03-03T09:27:29;94852.31;;;7.79;66.88
41062;BME280;26812;42.662;23.352;2023-03-03T09:29:55;94869.72;;;7.68;66.69
41062;BME280;26812;42.662;23.352;2023-03-03T09:32:33;94872.28;;;7.59;68.24
41062;BME280;26812;42.662;23.352;2023-03-03T09:35:22;94856.19;;;7.59;66.61
41062;BME280;26812;42.662;23.352;2023-03-03T09:37:47;94857.88;;;7.55;68.27
41062;BME280;26812;42.662;23.352;2023-03-03T09:40:39;94842.78;;;7.59;67.02
41062;BME280;26812;42.662;23.352;2023-03-03T09:46:04;94868.47;;;8.01;65.11
41062;BME280;26812;42.662;23.352;2023-03-03T09:48:41;94852.19;;;7.84;66.71
41062;BME280;26812;42.662;23.352;2023-03-03T09:51:13;94868.28;;;7.98;66.35
41062;BME280;26812;42.662;23.352;2023-03-03T10:01:45;94858.31;;;8.12;65.17
41062;BME280;26812;42.662;23.352;2023-03-03T10:10:15;94859.72;;;7.96;66.72
41062;BME280;26812;42.662;23.352;2023-03-03T10:18:17;94847.94;;;7.97;67.39
41062;BME280;26812;42.662;23.352;2023-03-03T10:26:19;94844.56;;;7.64;69.25
41062;BME280;26812;42.662;23.352;2023-03-03T10:39:51;94844.22;;;8.06;68.39
41062;BME280;26812;42.662;23.352;2023-03-03T10:53:26;94833.41;;;6.74;73.23
41062;BME280;26812;42.662;23.352;2023-03-03T11:14:32;94814.13;;;7.05;72.02
41062;BME280;26812;42.662;23.352;2023-03-03T11:20:35;94798.78;;;7.74;70.11
41062;BME280;26812;42.662;23.352;2023-03-03T11:25:48;94803.53;;;7.77;69.65
41062;BME280;26812;42.662;23.352;2023-03-03T11:33:57;94804.97;;;7.47;71.15
41062;BME280;26812;42.662;23.352;2023-03-03T11:36:42;94810.72;;;7.54;70.90
41062;BME280;26812;42.662;23.352;2023-03-03T11:39:10;94795.66;;;7.44;70.64
41062;BME280;26812;42.662;23.352;2023-03-03T11:42:14;94788.31;;;8.00;70.32
41062;BME280;26812;42.662;23.352;2023-03-03T11:44:49;94792.63;;;7.60;71.34
41062;BME280;26812;42.662;23.352;2023-03-03T11:50:26;94798.31;;;7.03;75.23
41062;BME280;26812;42.662;23.352;2023-03-03T11:55:44;94785.63;;;7.23;74.64
41062;BME280;26812;42.662;23.352;2023-03-03T11:58:20;94782.81;;;7.55;74.21
41062;BME280;26812;42.662;23.352;2023-03-03T12:01:11;94788.69;;;7.02;75.89
41062;BME280;26812;42.662;23.352;2023-03-03T12:09:54;94754.84;;;7.34;75.03
41062;BME280;26812;42.662;23.352;2023-03-03T12:12:26;94783.44;;;7.25;75.51
41062;BME280;26812;42.662;23.352;2023-03-03T12:15:16;94760.91;;;7.39;75.24
41062;BME280;26812;42.662;23.352;2023-03-03T12:20:44;94782.56;;;7.43;76.07
41062;BME280;26812;42.662;23.352;2023-03-03T12:26:03;94788.03;;;7.38;75.64
41062;BME280;26812;42.662;23.352;2023-03-03T12:28:42;94767.97;;;7.22;75.78
41062;BME280;26812;42.662;23.352;2023-03-03T12:49:20;94772.97;;;7.64;74.86
41062;BME280;26812;42.662;23.352;2023-03-03T13:00:53;94762.16;;;7.69;73.46
41062;BME280;26812;42.662;23.352;2023-03-03T13:11:35;94784.91;;;7.94;73.86
41062;BME280;26812;42.662;23.352;2023-03-03T13:17:22;94775.69;;;8.00;74.56
41062;BME280;26812;42.662;23.352;2023-03-03T13:19:58;94765.44;;;7.66;75.31
41062;BME280;26812;42.662;23.352;2023-03-03T13:22:42;94764.00;;;7.83;74.84
41062;BME280;26812;42.662;23.352;2023-03-03T13:31:18;94765.16;;;7.90;75.28
41062;BME280;26812;42.662;23.352;2023-03-03T13:33:55;94766.19;;;7.81;75.14
41062;BME280;26812;42.662;23.352;2023-03-03T13:39:13;94759.66;;;7.95;75.66
41062;BME280;26812;42.662;23.352;2023-03-03T13:41:58;94779.09;;;8.15;74.43
41062;BME280;26812;42.662;23.352;2023-03-03T13:44:38;94779.94;;;8.37;72.50
41062;BME280;26812;42.662;23.352;2023-03-03T13:55:47;94744.19;;;7.56;75.44
41062;BME280;26812;42.662;23.352;2023-03-03T13:58:23;94747.03;;;7.73;74.75
41062;BME280;26812;42.662;23.352;2023-03-03T14:06:21;94761.19;;;7.52;75.16
41062;BME280;26812;42.662;23.352;2023-03-03T14:14:31;94769.72;;;7.90;73.89
41062;BME280;26812;42.662;23.352;2023-03-03T14:17:04;94776.75;;;8.58;70.90
41062;BME280;26812;42.662;23.352;2023-03-03T14:19:36;94759.94;;;8.52;70.74
41062;BME280;26812;42.662;23.352;2023-03-03T14:22:28;94777.63;;;8.08;71.13
41062;BME280;26812;42.662;23.352;2023-03-03T14:35:24;94766.22;;;7.67;74.97
41062;BME280;26812;42.662;23.352;2023-03-03T14:38:00;94750.91;;;7.18;76.22
41062;BME280;26812;42.662;23.352;2023-03-03T14:40:31;94749.56;;;7.56;75.19
41062;BME280;26812;42.662;23.352;2023-03-03T14:42:59;94742.22;;;7.84;75.17
41062;BME280;26812;42.662;23.352;2023-03-03T14:45:37;94759.59;;;7.87;73.75
41062;BME280;26812;42.662;23.352;2023-03-03T14:48:15;94728.19;;;7.15;74.62
41062;BME280;26812;42.662;23.352;2023-03-03T14:55:46;94752.00;;;7.16;77.17
41062;BME280;26812;42.662;23.352;2023-03-03T14:58:37;94760.72;;;7.22;77.98
41062;BME280;26812;42.662;23.352;2023-03-03T15:01:30;94766.53;;;8.24;74.46
41062;BME280;26812;42.662;23.352;2023-03-03T15:04:23;94755.81;;;8.46;72.36
41062;BME280;26812;42.662;23.352;2023-03-03T15:06:48;94753.72;;;8.21;72.12
41062;BME280;26812;42.662;23.352;2023-03-03T15:11:56;94752.03;;;7.53;74.04
41062;BME280;26812;42.662;23.352;2023-03-03T15:14:29;94765.56;;;7.47;75.98
41062;BME280;26812;42.662;23.352;2023-03-03T15:22:46;94752.09;;;6.84;79.48
41062;BME280;26812;42.662;23.352;2023-03-03T15:25:20;94758.63;;;6.92;78.62
41062;BME280;26812;42.662;23.352;2023-03-03T15:28:09;94759.13;;;7.21;77.43
41062;BME280;26812;42.662;23.352;2023-03-03T15:36:46;94761.66;;;7.67;74.87
41062;BME280;26812;42.662;23.352;2023-03-03T15:42:13;94769.34;;;7.33;76.34
41062;BME280;26812;42.662;23.352;2023-03-03T15:44:55;94764.19;;;7.36;76.64
41062;BME280;26812;42.662;23.352;2023-03-03T16:04:20;94760.84;;;8.03;74.85
41062;BME280;26812;42.662;23.352;2023-03-03T16:06:52;94771.03;;;8.15;74.54
41062;BME280;26812;42.662;23.352;2023-03-03T16:15:37;94790.69;;;7.52;76.76
41062;BME280;26812;42.662;23.352;2023-03-03T16:26:53;94798.59;;;7.57;77.27
41062;BME280;26812;42.662;23.352;2023-03-03T16:32:36;94803.19;;;7.92;74.92
41062;BME280;26812;42.662;23.352;2023-03-03T16:35:20;94790.69;;;7.38;76.98
41062;BME280;26812;42.662;23.352;2023-03-03T16:37:59;94791.09;;;7.45;75.72
41062;BME280;26812;42.662;23.352;2023-03-03T16:43:26;94802.41;;;7.42;75.66
41062;BME280;26812;42.662;23.352;2023-03-03T16:45:59;94815.78;;;7.69;74.83
41062;BME280;26812;42.662;23.352;2023-03-03T16:48:52;94812.13;;;7.52;74.88
41062;BME280;26812;42.662;23.352;2023-03-03T16:54:15;94820.84;;;7.57;75.75
41062;BME280;26812;42.662;23.352;2023-03-03T16:56:45;94807.75;;;7.56;73.79
41062;BME280;26812;42.662;23.352;2023-03-03T17:02:36;94834.34;;;7.79;74.41
41062;BME280;26812;42.662;23.352;2023-03-03T17:05:26;94842.41;;;7.38;74.91
41062;BME280;26812;42.662;23.352;2023-03-03T17:11:00;94831.88;;;7.56;75.64
41062;BME280;26812;42.662;23.352;2023-03-03T17:14:30;94832.03;;;8.23;73.17
41062;BME280;26812;42.662;23.352;2023-03-03T17:30:01;94837.19;;;8.33;69.80
41062;BME280;26812;42.662;23.352;2023-03-03T17:41:05;94827.69;;;7.77;74.04
41062;BME280;26812;42.662;23.352;2023-03-03T17:46:36;94862.69;;;8.08;72.23
41062;BME280;26812;42.662;23.352;2023-03-03T17:54:43;94886.25;;;8.61;71.83
41062;BME280;26812;42.662;23.352;2023-03-03T18:00:27;94851.16;;;7.44;75.43
41062;BME280;26812;42.662;23.352;2023-03-03T18:11:22;94879.75;;;7.48;77.30
41062;BME280;26812;42.662;23.352;2023-03-03T18:22:08;94889.16;;;7.60;74.76
41062;BME280;26812;42.662;23.352;2023-03-03T18:24:37;94891.44;;;7.80;75.53
41062;BME280;26812;42.662;23.352;2023-03-03T18:27:33;94895.63;;;7.72;75.33
41062;BME280;26812;42.662;23.352;2023-03-03T18:30:24;94895.63;;;7.59;75.36
41062;BME280;26812;42.662;23.352;2023-03-03T18:35:26;94899.91;;;7.73;74.80
41062;BME280;26812;42.662;23.352;2023-03-03T18:37:52;94888.38;;;7.59;74.68
41062;BME280;26812;42.662;23.352;2023-03-03T18:40:27;94910.81;;;7.63;74.94
41062;BME280;26812;42.662;23.352;2023-03-03T18:42:53;94901.44;;;7.33;75.67
41062;BME280;26812;42.662;23.352;2023-03-03T18:48:12;94918.66;;;7.46;76.54
41062;BME280;26812;42.662;23.352;2023-03-03T18:50:42;94921.25;;;7.51;75.97
41062;BME280;26812;42.662;23.352;2023-03-03T18:55:55;94925.13;;;8.00;73.64